DAL1309 KIAD-KATL
Flight info
| Callsign | DAL1309 |
|---|---|
| Flight time | 1h 30m |
| Altitude | 34000 |
| Route | CLTCH3 FLASK OZZZI2 |
| Aircraft | A319/M-SDE3FGHIRWY/LB1 |
Departure
| Time | 2026-05-07 00:39 |
|---|---|
| Airport | Washington Dulles International Airport (KIAD) |
Arrival
| Time | 2026-05-07 02:10 |
|---|---|
| Airport | Hartsfield Jackson Atlanta International Airport (KATL) |
| Time | Latitude | Longitude | Altitude | Speed | Heading |
|---|---|---|---|---|---|
| 2026-05-07 00:09 | 38.94824 | -77.45332 | 301 ft | 0 kts | 360° |
| 2026-05-07 00:29 | 38.94821 | -77.45332 | 291 ft | 3 kts | 360° |
| 2026-05-07 00:29 | 38.94795 | -77.45331 | 301 ft | 4 kts | 356° |
| 2026-05-07 00:30 | 38.94730 | -77.45298 | 300 ft | 1 kts | 271° |
| 2026-05-07 00:30 | 38.94730 | -77.45297 | 300 ft | 0 kts | 271° |
| 2026-05-07 00:33 | 38.94730 | -77.45299 | 300 ft | 1 kts | 271° |
| 2026-05-07 00:34 | 38.94730 | -77.45325 | 300 ft | 5 kts | 271° |
| 2026-05-07 00:34 | 38.94731 | -77.45393 | 300 ft | 11 kts | 271° |
| 2026-05-07 00:34 | 38.94732 | -77.45514 | 300 ft | 16 kts | 271° |
| 2026-05-07 00:34 | 38.94667 | -77.45610 | 302 ft | 16 kts | 182° |
| 2026-05-07 00:35 | 38.94545 | -77.45611 | 300 ft | 19 kts | 180° |
| 2026-05-07 00:35 | 38.94452 | -77.45612 | 300 ft | 21 kts | 180° |
| 2026-05-07 00:35 | 38.94248 | -77.45615 | 300 ft | 22 kts | 180° |
| 2026-05-07 00:35 | 38.94095 | -77.45617 | 300 ft | 22 kts | 180° |
| 2026-05-07 00:36 | 38.93941 | -77.45619 | 300 ft | 22 kts | 180° |
| 2026-05-07 00:36 | 38.93785 | -77.45621 | 300 ft | 22 kts | 181° |
| 2026-05-07 00:36 | 38.93659 | -77.45549 | 301 ft | 16 kts | 131° |
| 2026-05-07 00:36 | 38.93565 | -77.45505 | 300 ft | 15 kts | 199° |
| 2026-05-07 00:37 | 38.93470 | -77.45553 | 301 ft | 12 kts | 200° |
| 2026-05-07 00:37 | 38.93463 | -77.45556 | 301 ft | 0 kts | 200° |
| 2026-05-07 00:37 | 38.93461 | -77.45557 | 300 ft | 1 kts | 200° |
| 2026-05-07 00:38 | 38.93440 | -77.45567 | 299 ft | 6 kts | 200° |
| 2026-05-07 00:38 | 38.93376 | -77.45602 | 301 ft | 9 kts | 226° |
| 2026-05-07 00:38 | 38.93380 | -77.45666 | 299 ft | 8 kts | 290° |
| 2026-05-07 00:38 | 38.93383 | -77.45675 | 299 ft | 5 kts | 290° |
| 2026-05-07 00:39 | 38.93495 | -77.46048 | 299 ft | 89 kts | 291° |
| 2026-05-07 00:39 | 38.93754 | -77.46934 | 308 ft | 153 kts | 290° |
| 2026-05-07 00:39 | 38.94180 | -77.48395 | 950 ft | 162 kts | 291° |
| 2026-05-07 00:39 | 38.94347 | -77.50263 | 1976 ft | 167 kts | 270° |
| 2026-05-07 00:40 | 38.94260 | -77.51390 | 2572 ft | 165 kts | 264° |
| 2026-05-07 00:40 | 38.94134 | -77.52992 | 2917 ft | 187 kts | 268° |
| 2026-05-07 00:40 | 38.94062 | -77.54825 | 2998 ft | 225 kts | 269° |
| 2026-05-07 00:40 | 38.94003 | -77.56979 | 3018 ft | 251 kts | 269° |
| 2026-05-07 00:41 | 38.93946 | -77.59221 | 3379 ft | 252 kts | 269° |
| 2026-05-07 00:41 | 38.93901 | -77.61470 | 3882 ft | 251 kts | 269° |
| 2026-05-07 00:41 | 38.93706 | -77.63694 | 4506 ft | 254 kts | 251° |
| 2026-05-07 00:41 | 38.92804 | -77.65653 | 5551 ft | 252 kts | 227° |
| 2026-05-07 00:42 | 38.91334 | -77.66899 | 6517 ft | 259 kts | 204° |
| 2026-05-07 00:42 | 38.89506 | -77.67547 | 7423 ft | 264 kts | 200° |
| 2026-05-07 00:42 | 38.87723 | -77.68117 | 8374 ft | 263 kts | 199° |
| 2026-05-07 00:42 | 38.85899 | -77.68702 | 9198 ft | 270 kts | 200° |
| 2026-05-07 00:43 | 38.84060 | -77.69294 | 9905 ft | 272 kts | 200° |
| 2026-05-07 00:43 | 38.82180 | -77.69905 | 10387 ft | 289 kts | 200° |
| 2026-05-07 00:43 | 38.80159 | -77.70572 | 10743 ft | 309 kts | 200° |
| 2026-05-07 00:43 | 38.78053 | -77.71261 | 11447 ft | 315 kts | 200° |
| 2026-05-07 00:44 | 38.75915 | -77.71950 | 12209 ft | 319 kts | 201° |
| 2026-05-07 00:44 | 38.73696 | -77.72667 | 13003 ft | 322 kts | 201° |
| 2026-05-07 00:44 | 38.71508 | -77.73373 | 13739 ft | 326 kts | 201° |
| 2026-05-07 00:44 | 38.69297 | -77.74085 | 14391 ft | 329 kts | 201° |
| 2026-05-07 00:45 | 38.66935 | -77.74849 | 15101 ft | 333 kts | 202° |
| 2026-05-07 00:45 | 38.64754 | -77.75554 | 15747 ft | 336 kts | 202° |
| 2026-05-07 00:45 | 38.62479 | -77.76292 | 16424 ft | 338 kts | 203° |
| 2026-05-07 00:45 | 38.60161 | -77.77043 | 17102 ft | 341 kts | 203° |
| 2026-05-07 00:46 | 38.57851 | -77.77790 | 17763 ft | 344 kts | 204° |
| 2026-05-07 00:46 | 38.55499 | -77.78567 | 18393 ft | 344 kts | 207° |
| 2026-05-07 00:46 | 38.53347 | -77.79710 | 18949 ft | 335 kts | 218° |
| 2026-05-07 00:46 | 38.51421 | -77.81386 | 19551 ft | 327 kts | 229° |
| 2026-05-07 00:47 | 38.49835 | -77.83422 | 20151 ft | 323 kts | 235° |
| 2026-05-07 00:47 | 38.48330 | -77.85555 | 20669 ft | 325 kts | 235° |
| 2026-05-07 00:47 | 38.46812 | -77.87697 | 20860 ft | 325 kts | 235° |
| 2026-05-07 00:47 | 38.45295 | -77.89831 | 20908 ft | 324 kts | 235° |
| 2026-05-07 00:48 | 38.43926 | -77.92081 | 20909 ft | 320 kts | 241° |
| 2026-05-07 00:48 | 38.42638 | -77.94398 | 20901 ft | 320 kts | 241° |
| 2026-05-07 00:48 | 38.41767 | -77.95961 | 20910 ft | 320 kts | 240° |
| 2026-05-07 00:48 | 38.40483 | -77.98273 | 20914 ft | 320 kts | 240° |
| 2026-05-07 00:49 | 38.39193 | -78.00607 | 21411 ft | 323 kts | 240° |
| 2026-05-07 00:49 | 38.37897 | -78.02952 | 22042 ft | 324 kts | 241° |
| 2026-05-07 00:49 | 38.36598 | -78.05307 | 22631 ft | 326 kts | 241° |
| 2026-05-07 00:49 | 38.35284 | -78.07678 | 23203 ft | 328 kts | 241° |
| 2026-05-07 00:50 | 38.33945 | -78.10088 | 23742 ft | 330 kts | 241° |
| 2026-05-07 00:50 | 38.32610 | -78.12482 | 24192 ft | 332 kts | 240° |
| 2026-05-07 00:50 | 38.31274 | -78.14882 | 24663 ft | 333 kts | 240° |
| 2026-05-07 00:50 | 38.29931 | -78.17290 | 25131 ft | 334 kts | 240° |
| 2026-05-07 00:51 | 38.28584 | -78.19703 | 25519 ft | 336 kts | 240° |
| 2026-05-07 00:51 | 38.27224 | -78.22135 | 25914 ft | 339 kts | 240° |
| 2026-05-07 00:51 | 38.25852 | -78.24583 | 26333 ft | 340 kts | 240° |
| 2026-05-07 00:51 | 38.24475 | -78.27043 | 26761 ft | 342 kts | 239° |
| 2026-05-07 00:52 | 38.23089 | -78.29514 | 27180 ft | 343 kts | 239° |
| 2026-05-07 00:52 | 38.21704 | -78.31991 | 27608 ft | 344 kts | 239° |
| 2026-05-07 00:52 | 38.20318 | -78.34478 | 28031 ft | 346 kts | 239° |
| 2026-05-07 00:52 | 38.18903 | -78.37012 | 28464 ft | 347 kts | 239° |
| 2026-05-07 00:53 | 38.17502 | -78.39516 | 28871 ft | 349 kts | 239° |
| 2026-05-07 00:53 | 38.16066 | -78.42004 | 29289 ft | 350 kts | 238° |
| 2026-05-07 00:53 | 38.14585 | -78.44480 | 29682 ft | 352 kts | 237° |
| 2026-05-07 00:53 | 38.13089 | -78.46947 | 30041 ft | 354 kts | 237° |
| 2026-05-07 00:54 | 38.11582 | -78.49433 | 30362 ft | 355 kts | 238° |
| 2026-05-07 00:54 | 38.10076 | -78.51927 | 30672 ft | 357 kts | 238° |
| 2026-05-07 00:54 | 38.08549 | -78.54475 | 30920 ft | 359 kts | 238° |
| 2026-05-07 00:54 | 38.07033 | -78.57014 | 31154 ft | 363 kts | 239° |
| 2026-05-07 00:55 | 38.05503 | -78.59569 | 31429 ft | 364 kts | 239° |
| 2026-05-07 00:55 | 38.03965 | -78.62130 | 31719 ft | 366 kts | 239° |
| 2026-05-07 00:55 | 38.02421 | -78.64703 | 32052 ft | 366 kts | 239° |
| 2026-05-07 00:55 | 38.00863 | -78.67296 | 32490 ft | 364 kts | 240° |
| 2026-05-07 00:56 | 37.99332 | -78.69835 | 33002 ft | 360 kts | 240° |
| 2026-05-07 00:56 | 37.97820 | -78.72340 | 33533 ft | 356 kts | 240° |
| 2026-05-07 00:56 | 37.96320 | -78.74824 | 33822 ft | 354 kts | 241° |
| 2026-05-07 00:56 | 37.94834 | -78.77279 | 33873 ft | 345 kts | 241° |
| 2026-05-07 00:57 | 37.91973 | -78.81990 | 33883 ft | 333 kts | 242° |
| 2026-05-07 00:57 | 37.89174 | -78.86641 | 33884 ft | 332 kts | 242° |
| 2026-05-07 00:58 | 37.86382 | -78.91291 | 33885 ft | 331 kts | 242° |
| 2026-05-07 00:58 | 37.83559 | -78.95960 | 33889 ft | 332 kts | 241° |
| 2026-05-07 00:59 | 37.79335 | -79.02887 | 33888 ft | 331 kts | 241° |
| 2026-05-07 01:00 | 37.76530 | -79.07498 | 33918 ft | 331 kts | 241° |
| 2026-05-07 01:00 | 37.73731 | -79.12103 | 33942 ft | 330 kts | 241° |
| 2026-05-07 01:01 | 37.70928 | -79.16702 | 33965 ft | 330 kts | 241° |
| 2026-05-07 01:01 | 37.68133 | -79.21288 | 33944 ft | 329 kts | 242° |
| 2026-05-07 01:02 | 37.65385 | -79.25902 | 33951 ft | 329 kts | 242° |
| 2026-05-07 01:02 | 37.62661 | -79.30532 | 33954 ft | 329 kts | 242° |
| 2026-05-07 01:03 | 37.59929 | -79.35167 | 33955 ft | 329 kts | 242° |
| 2026-05-07 01:03 | 37.57182 | -79.39798 | 33950 ft | 330 kts | 242° |
| 2026-05-07 01:04 | 37.54425 | -79.44415 | 33919 ft | 329 kts | 242° |
| 2026-05-07 01:04 | 37.51669 | -79.49028 | 33919 ft | 329 kts | 241° |
| 2026-05-07 01:05 | 37.48900 | -79.53668 | 33892 ft | 329 kts | 242° |
| 2026-05-07 01:05 | 37.46152 | -79.58273 | 33898 ft | 331 kts | 242° |
| 2026-05-07 01:06 | 37.43320 | -79.63030 | 33915 ft | 344 kts | 242° |
| 2026-05-07 01:06 | 37.40417 | -79.67864 | 33916 ft | 347 kts | 242° |
| 2026-05-07 01:07 | 37.37502 | -79.72703 | 33941 ft | 347 kts | 242° |
| 2026-05-07 01:07 | 37.34586 | -79.77542 | 33949 ft | 347 kts | 242° |
| 2026-05-07 01:08 | 37.31655 | -79.82411 | 33969 ft | 347 kts | 242° |
| 2026-05-07 01:08 | 37.28749 | -79.87235 | 33977 ft | 346 kts | 242° |
| 2026-05-07 01:09 | 37.25834 | -79.92053 | 33898 ft | 346 kts | 242° |
| 2026-05-07 01:09 | 37.22902 | -79.96894 | 33906 ft | 346 kts | 242° |
| 2026-05-07 01:10 | 37.19996 | -80.01701 | 33913 ft | 345 kts | 242° |
| 2026-05-07 01:10 | 37.17090 | -80.06499 | 33932 ft | 346 kts | 242° |
| 2026-05-07 01:11 | 37.14170 | -80.11301 | 33944 ft | 346 kts | 242° |
| 2026-05-07 01:11 | 37.11253 | -80.16094 | 33958 ft | 346 kts | 242° |
| 2026-05-07 01:12 | 37.08331 | -80.20892 | 33979 ft | 346 kts | 242° |
| 2026-05-07 01:12 | 37.05418 | -80.25665 | 33950 ft | 345 kts | 242° |
| 2026-05-07 01:13 | 37.02478 | -80.30474 | 33950 ft | 346 kts | 242° |
| 2026-05-07 01:13 | 36.99178 | -80.34972 | 33947 ft | 353 kts | 236° |
| 2026-05-07 01:14 | 36.95742 | -80.39360 | 33934 ft | 353 kts | 236° |
| 2026-05-07 01:14 | 36.92299 | -80.43757 | 33931 ft | 354 kts | 236° |
| 2026-05-07 01:15 | 36.89420 | -80.47441 | 33928 ft | 354 kts | 236° |
| 2026-05-07 01:15 | 36.85979 | -80.51838 | 33919 ft | 354 kts | 236° |
| 2026-05-07 01:16 | 36.82531 | -80.56237 | 33919 ft | 354 kts | 236° |
| 2026-05-07 01:16 | 36.79082 | -80.60624 | 33922 ft | 354 kts | 236° |
| 2026-05-07 01:17 | 36.75621 | -80.65015 | 33983 ft | 355 kts | 236° |
| 2026-05-07 01:17 | 36.72167 | -80.69396 | 33990 ft | 354 kts | 236° |
| 2026-05-07 01:18 | 36.68713 | -80.73777 | 33990 ft | 354 kts | 236° |
| 2026-05-07 01:18 | 36.65252 | -80.78161 | 33989 ft | 355 kts | 236° |
| 2026-05-07 01:19 | 36.61744 | -80.82603 | 33947 ft | 355 kts | 236° |
| 2026-05-07 01:19 | 36.58270 | -80.86992 | 33948 ft | 357 kts | 236° |
| 2026-05-07 01:20 | 36.54779 | -80.91389 | 33921 ft | 358 kts | 236° |
| 2026-05-07 01:20 | 36.51252 | -80.95822 | 33944 ft | 358 kts | 236° |
| 2026-05-07 01:21 | 36.47757 | -81.00210 | 33968 ft | 357 kts | 236° |
| 2026-05-07 01:21 | 36.44263 | -81.04595 | 33984 ft | 357 kts | 236° |
| 2026-05-07 01:22 | 36.40770 | -81.08976 | 33974 ft | 357 kts | 235° |
| 2026-05-07 01:22 | 36.37277 | -81.13347 | 33985 ft | 357 kts | 235° |
| 2026-05-07 01:23 | 36.33758 | -81.17749 | 33996 ft | 357 kts | 235° |
| 2026-05-07 01:23 | 36.30251 | -81.22132 | 34002 ft | 358 kts | 235° |
| 2026-05-07 01:24 | 36.26748 | -81.26518 | 33999 ft | 359 kts | 235° |
| 2026-05-07 01:24 | 36.23240 | -81.30903 | 33995 ft | 357 kts | 235° |
| 2026-05-07 01:25 | 36.19731 | -81.35263 | 33989 ft | 357 kts | 235° |
| 2026-05-07 01:25 | 36.16223 | -81.39627 | 33952 ft | 358 kts | 234° |
| 2026-05-07 01:26 | 36.12715 | -81.43996 | 33938 ft | 359 kts | 234° |
| 2026-05-07 01:26 | 36.09187 | -81.48375 | 33929 ft | 359 kts | 234° |
| 2026-05-07 01:27 | 36.05655 | -81.52745 | 33929 ft | 360 kts | 234° |
| 2026-05-07 01:27 | 36.02118 | -81.57121 | 33926 ft | 360 kts | 234° |
| 2026-05-07 01:28 | 35.98578 | -81.61494 | 33924 ft | 360 kts | 234° |
| 2026-05-07 01:28 | 35.95043 | -81.65869 | 33905 ft | 360 kts | 234° |
| 2026-05-07 01:29 | 35.91465 | -81.70285 | 33934 ft | 362 kts | 233° |
| 2026-05-07 01:29 | 35.87900 | -81.74665 | 33940 ft | 362 kts | 233° |
| 2026-05-07 01:30 | 35.84333 | -81.79041 | 34022 ft | 361 kts | 233° |
| 2026-05-07 01:30 | 35.80771 | -81.83412 | 34012 ft | 361 kts | 233° |
| 2026-05-07 01:31 | 35.77206 | -81.87775 | 34000 ft | 362 kts | 233° |
| 2026-05-07 01:31 | 35.73593 | -81.92095 | 33983 ft | 362 kts | 233° |
| 2026-05-07 01:32 | 35.69976 | -81.96401 | 33970 ft | 362 kts | 233° |
| 2026-05-07 01:32 | 35.66365 | -82.00705 | 33984 ft | 362 kts | 233° |
| 2026-05-07 01:33 | 35.62721 | -82.05048 | 33983 ft | 362 kts | 233° |
| 2026-05-07 01:33 | 35.59114 | -82.09358 | 33983 ft | 361 kts | 232° |
| 2026-05-07 01:34 | 35.55510 | -82.13658 | 33976 ft | 361 kts | 233° |
| 2026-05-07 01:34 | 35.51897 | -82.17952 | 33980 ft | 362 kts | 233° |
| 2026-05-07 01:35 | 35.48279 | -82.22244 | 33953 ft | 362 kts | 232° |
| 2026-05-07 01:35 | 35.44649 | -82.26547 | 33947 ft | 364 kts | 232° |
| 2026-05-07 01:36 | 35.41014 | -82.30890 | 33946 ft | 365 kts | 233° |
| 2026-05-07 01:36 | 35.37450 | -82.35320 | 33954 ft | 360 kts | 233° |
| 2026-05-07 01:37 | 35.34005 | -82.39628 | 33968 ft | 347 kts | 234° |
| 2026-05-07 01:37 | 35.30631 | -82.43834 | 33970 ft | 341 kts | 234° |
| 2026-05-07 01:38 | 35.27313 | -82.47952 | 33973 ft | 340 kts | 234° |
| 2026-05-07 01:38 | 35.23959 | -82.52110 | 34015 ft | 347 kts | 233° |
| 2026-05-07 01:39 | 35.20550 | -82.56331 | 34009 ft | 349 kts | 233° |
| 2026-05-07 01:39 | 35.17127 | -82.60548 | 33999 ft | 349 kts | 233° |
| 2026-05-07 01:40 | 35.13688 | -82.64733 | 33980 ft | 349 kts | 232° |
| 2026-05-07 01:40 | 35.10191 | -82.68873 | 33745 ft | 351 kts | 232° |
| 2026-05-07 01:40 | 35.08438 | -82.70940 | 33489 ft | 350 kts | 232° |
| 2026-05-07 01:41 | 35.07256 | -82.72336 | 33314 ft | 350 kts | 232° |
| 2026-05-07 01:41 | 35.05509 | -82.74398 | 33054 ft | 349 kts | 232° |
| 2026-05-07 01:41 | 35.03764 | -82.76457 | 32801 ft | 349 kts | 232° |
| 2026-05-07 01:41 | 35.02016 | -82.78523 | 32519 ft | 352 kts | 231° |
| 2026-05-07 01:42 | 35.00257 | -82.80608 | 32270 ft | 353 kts | 231° |
| 2026-05-07 01:42 | 34.98492 | -82.82701 | 32018 ft | 353 kts | 231° |
| 2026-05-07 01:42 | 34.96710 | -82.84807 | 31779 ft | 352 kts | 231° |
| 2026-05-07 01:42 | 34.94951 | -82.86885 | 31533 ft | 351 kts | 231° |
| 2026-05-07 01:43 | 34.93199 | -82.88954 | 31292 ft | 350 kts | 231° |
| 2026-05-07 01:43 | 34.91442 | -82.91006 | 31053 ft | 350 kts | 230° |
| 2026-05-07 01:43 | 34.89684 | -82.93046 | 30817 ft | 349 kts | 230° |
| 2026-05-07 01:43 | 34.87926 | -82.95076 | 30580 ft | 348 kts | 230° |
| 2026-05-07 01:44 | 34.86170 | -82.97101 | 30345 ft | 347 kts | 230° |
| 2026-05-07 01:44 | 34.84397 | -82.99142 | 30111 ft | 346 kts | 230° |
| 2026-05-07 01:44 | 34.82651 | -83.01152 | 29849 ft | 345 kts | 230° |
| 2026-05-07 01:44 | 34.80914 | -83.03153 | 29576 ft | 343 kts | 230° |
| 2026-05-07 01:45 | 34.79187 | -83.05149 | 29279 ft | 342 kts | 230° |
| 2026-05-07 01:45 | 34.77456 | -83.07153 | 29013 ft | 345 kts | 230° |
| 2026-05-07 01:45 | 34.75718 | -83.09166 | 28740 ft | 345 kts | 230° |
| 2026-05-07 01:45 | 34.73981 | -83.11173 | 28479 ft | 344 kts | 230° |
| 2026-05-07 01:46 | 34.72246 | -83.13174 | 28236 ft | 343 kts | 230° |
| 2026-05-07 01:46 | 34.70517 | -83.15163 | 27983 ft | 342 kts | 230° |
| 2026-05-07 01:46 | 34.68788 | -83.17147 | 27723 ft | 341 kts | 230° |
| 2026-05-07 01:46 | 34.67067 | -83.19122 | 27477 ft | 340 kts | 230° |
| 2026-05-07 01:47 | 34.65356 | -83.21085 | 27232 ft | 339 kts | 230° |
| 2026-05-07 01:47 | 34.63643 | -83.23052 | 26981 ft | 338 kts | 229° |
| 2026-05-07 01:47 | 34.61941 | -83.25005 | 26735 ft | 336 kts | 229° |
| 2026-05-07 01:47 | 34.60233 | -83.26959 | 26356 ft | 332 kts | 230° |
| 2026-05-07 01:48 | 34.58553 | -83.28883 | 25916 ft | 331 kts | 230° |
| 2026-05-07 01:48 | 34.56883 | -83.30797 | 25438 ft | 330 kts | 230° |
| 2026-05-07 01:48 | 34.55216 | -83.32712 | 24943 ft | 329 kts | 230° |
| 2026-05-07 01:48 | 34.53535 | -83.34647 | 24466 ft | 329 kts | 231° |
| 2026-05-07 01:49 | 34.51877 | -83.36558 | 23979 ft | 329 kts | 231° |
| 2026-05-07 01:49 | 34.50220 | -83.38466 | 23445 ft | 329 kts | 231° |
| 2026-05-07 01:49 | 34.48559 | -83.40377 | 22898 ft | 328 kts | 230° |
| 2026-05-07 01:49 | 34.46906 | -83.42275 | 22401 ft | 326 kts | 230° |
| 2026-05-07 01:50 | 34.45266 | -83.44158 | 21926 ft | 324 kts | 230° |
| 2026-05-07 01:50 | 34.43613 | -83.46057 | 21411 ft | 323 kts | 230° |
| 2026-05-07 01:50 | 34.41987 | -83.47923 | 20930 ft | 321 kts | 230° |
| 2026-05-07 01:50 | 34.40378 | -83.49763 | 20471 ft | 316 kts | 229° |
| 2026-05-07 01:51 | 34.38779 | -83.51594 | 20003 ft | 316 kts | 229° |
| 2026-05-07 01:51 | 34.37191 | -83.53416 | 19555 ft | 314 kts | 229° |
| 2026-05-07 01:51 | 34.35602 | -83.55235 | 19100 ft | 314 kts | 229° |
| 2026-05-07 01:51 | 34.34018 | -83.57046 | 18645 ft | 313 kts | 229° |
| 2026-05-07 01:52 | 34.32438 | -83.58850 | 18193 ft | 312 kts | 229° |
| 2026-05-07 01:52 | 34.30870 | -83.60638 | 17676 ft | 305 kts | 229° |
| 2026-05-07 01:52 | 34.29355 | -83.62360 | 17295 ft | 294 kts | 230° |
| 2026-05-07 01:52 | 34.27858 | -83.64032 | 16882 ft | 293 kts | 229° |
| 2026-05-07 01:53 | 34.26337 | -83.65669 | 16476 ft | 293 kts | 227° |
| 2026-05-07 01:53 | 34.24808 | -83.67290 | 16069 ft | 292 kts | 227° |
| 2026-05-07 01:53 | 34.23281 | -83.68902 | 15667 ft | 291 kts | 226° |
| 2026-05-07 01:53 | 34.21738 | -83.70530 | 15284 ft | 290 kts | 226° |
| 2026-05-07 01:54 | 34.20219 | -83.72134 | 14889 ft | 290 kts | 226° |
| 2026-05-07 01:54 | 34.18707 | -83.73734 | 14495 ft | 289 kts | 225° |
| 2026-05-07 01:54 | 34.17197 | -83.75338 | 14099 ft | 289 kts | 225° |
| 2026-05-07 01:54 | 34.15712 | -83.76919 | 13694 ft | 288 kts | 225° |
| 2026-05-07 01:55 | 34.14232 | -83.78490 | 13278 ft | 287 kts | 224° |
| 2026-05-07 01:55 | 34.12700 | -83.80112 | 12867 ft | 284 kts | 224° |
| 2026-05-07 01:55 | 34.11235 | -83.81658 | 12467 ft | 274 kts | 224° |
| 2026-05-07 01:55 | 34.09807 | -83.83165 | 12078 ft | 266 kts | 225° |
| 2026-05-07 01:56 | 34.08401 | -83.84662 | 11995 ft | 267 kts | 225° |
| 2026-05-07 01:56 | 34.07008 | -83.86162 | 11990 ft | 269 kts | 225° |
| 2026-05-07 01:56 | 34.05602 | -83.87679 | 11491 ft | 272 kts | 225° |
| 2026-05-07 01:56 | 34.04211 | -83.89180 | 11317 ft | 266 kts | 225° |
| 2026-05-07 01:57 | 34.02794 | -83.90706 | 11006 ft | 266 kts | 225° |
| 2026-05-07 01:57 | 34.01455 | -83.92151 | 10670 ft | 265 kts | 225° |
| 2026-05-07 01:57 | 34.00066 | -83.93645 | 10355 ft | 263 kts | 225° |
| 2026-05-07 01:57 | 33.98706 | -83.95107 | 10026 ft | 261 kts | 225° |
| 2026-05-07 01:58 | 33.97361 | -83.96557 | 9673 ft | 258 kts | 225° |
| 2026-05-07 01:58 | 33.96030 | -83.98000 | 9330 ft | 256 kts | 225° |
| 2026-05-07 01:58 | 33.94714 | -83.99436 | 9033 ft | 253 kts | 225° |
| 2026-05-07 01:58 | 33.93411 | -84.00863 | 9005 ft | 254 kts | 225° |
| 2026-05-07 01:59 | 33.92102 | -84.02294 | 8921 ft | 257 kts | 225° |
| 2026-05-07 01:59 | 33.90793 | -84.03734 | 8623 ft | 253 kts | 225° |
| 2026-05-07 01:59 | 33.89499 | -84.05165 | 8328 ft | 252 kts | 225° |
| 2026-05-07 01:59 | 33.88199 | -84.06572 | 8030 ft | 252 kts | 220° |
| 2026-05-07 02:00 | 33.86585 | -84.07409 | 7736 ft | 260 kts | 193° |
| 2026-05-07 02:00 | 33.84751 | -84.07264 | 7449 ft | 269 kts | 176° |
| 2026-05-07 02:00 | 33.82896 | -84.06793 | 7129 ft | 269 kts | 174° |
| 2026-05-07 02:00 | 33.81075 | -84.06310 | 6777 ft | 267 kts | 174° |
| 2026-05-07 02:01 | 33.79254 | -84.05830 | 6449 ft | 269 kts | 174° |
| 2026-05-07 02:01 | 33.77426 | -84.05353 | 6103 ft | 268 kts | 174° |
| 2026-05-07 02:01 | 33.75605 | -84.04884 | 5748 ft | 263 kts | 174° |
| 2026-05-07 02:01 | 33.73872 | -84.04442 | 5396 ft | 251 kts | 174° |
| 2026-05-07 02:02 | 33.72200 | -84.04014 | 5079 ft | 240 kts | 174° |
| 2026-05-07 02:02 | 33.70643 | -84.03603 | 4999 ft | 219 kts | 174° |
| 2026-05-07 02:02 | 33.69197 | -84.03256 | 4992 ft | 206 kts | 183° |
| 2026-05-07 02:02 | 33.67880 | -84.03679 | 5000 ft | 195 kts | 220° |
| 2026-05-07 02:03 | 33.67047 | -84.04923 | 4995 ft | 193 kts | 241° |
| 2026-05-07 02:03 | 33.66464 | -84.06376 | 4995 ft | 193 kts | 244° |
| 2026-05-07 02:03 | 33.66091 | -84.07367 | 4994 ft | 193 kts | 244° |
| 2026-05-07 02:03 | 33.65548 | -84.08843 | 4994 ft | 195 kts | 245° |
| 2026-05-07 02:04 | 33.65024 | -84.10371 | 4988 ft | 197 kts | 254° |
| 2026-05-07 02:04 | 33.64923 | -84.12018 | 4991 ft | 198 kts | 266° |
| 2026-05-07 02:04 | 33.64921 | -84.13672 | 4990 ft | 199 kts | 265° |
| 2026-05-07 02:04 | 33.64925 | -84.15345 | 4924 ft | 200 kts | 265° |
| 2026-05-07 02:05 | 33.64929 | -84.17016 | 4730 ft | 201 kts | 265° |
| 2026-05-07 02:05 | 33.64932 | -84.18686 | 4483 ft | 199 kts | 264° |
| 2026-05-07 02:05 | 33.64935 | -84.20342 | 4240 ft | 198 kts | 264° |
| 2026-05-07 02:05 | 33.64938 | -84.21996 | 3988 ft | 198 kts | 265° |
| 2026-05-07 02:06 | 33.64940 | -84.23649 | 3740 ft | 197 kts | 264° |
| 2026-05-07 02:06 | 33.64943 | -84.25294 | 3484 ft | 196 kts | 264° |
| 2026-05-07 02:06 | 33.64946 | -84.26915 | 3266 ft | 192 kts | 265° |
| 2026-05-07 02:06 | 33.64948 | -84.28516 | 2989 ft | 187 kts | 264° |
| 2026-05-07 02:07 | 33.64950 | -84.30202 | 2729 ft | 180 kts | 264° |
| 2026-05-07 02:07 | 33.64954 | -84.32938 | 2304 ft | 159 kts | 263° |
| 2026-05-07 02:07 | 33.64956 | -84.34207 | 2110 ft | 140 kts | 263° |
| 2026-05-07 02:08 | 33.64956 | -84.35346 | 1932 ft | 130 kts | 263° |
| 2026-05-07 02:08 | 33.64955 | -84.36410 | 1771 ft | 128 kts | 264° |
| 2026-05-07 02:08 | 33.64954 | -84.37489 | 1608 ft | 129 kts | 264° |
| 2026-05-07 02:08 | 33.64955 | -84.38571 | 1428 ft | 129 kts | 267° |
| 2026-05-07 02:09 | 33.64954 | -84.39669 | 1261 ft | 133 kts | 267° |
| 2026-05-07 02:09 | 33.64952 | -84.40789 | 1134 ft | 133 kts | 264° |
| 2026-05-07 02:09 | 33.64953 | -84.41866 | 1008 ft | 119 kts | 265° |
| 2026-05-07 02:09 | 33.64951 | -84.42676 | 1007 ft | 66 kts | 270° |
| 2026-05-07 02:10 | 33.64951 | -84.43112 | 1006 ft | 38 kts | 266° |
| 2026-05-07 02:10 | 33.64862 | -84.43330 | 1006 ft | 23 kts | 245° |
| 2026-05-07 02:10 | 33.64845 | -84.43429 | 1006 ft | 0 kts | 267° |
| 2026-05-07 02:10 | 33.64845 | -84.43431 | 1006 ft | 0 kts | 267° |
| 2026-05-07 02:11 | 33.64845 | -84.43439 | 1006 ft | 1 kts | 267° |
| 2026-05-07 02:11 | 33.64844 | -84.43462 | 1006 ft | 5 kts | 267° |
| 2026-05-07 02:11 | 33.64841 | -84.43514 | 1007 ft | 7 kts | 256° |
| 2026-05-07 02:11 | 33.64799 | -84.43554 | 1007 ft | 10 kts | 202° |
| 2026-05-07 02:12 | 33.64722 | -84.43598 | 1007 ft | 15 kts | 213° |
| 2026-05-07 02:12 | 33.64632 | -84.43658 | 1006 ft | 15 kts | 207° |
| 2026-05-07 02:12 | 33.64541 | -84.43710 | 1006 ft | 14 kts | 188° |
| 2026-05-07 02:12 | 33.64442 | -84.43725 | 1006 ft | 14 kts | 187° |
| 2026-05-07 02:13 | 33.64351 | -84.43712 | 1006 ft | 12 kts | 139° |
| 2026-05-07 02:13 | 33.64342 | -84.43677 | 1006 ft | 1 kts | 72° |
| 2026-05-07 02:13 | 33.64342 | -84.43672 | 1006 ft | 1 kts | 79° |
| 2026-05-07 02:13 | 33.64342 | -84.43652 | 1006 ft | 2 kts | 92° |
| 2026-05-07 02:14 | 33.64342 | -84.43648 | 1006 ft | 0 kts | 90° |
| 2026-05-07 02:14 | 33.64342 | -84.43638 | 1006 ft | 0 kts | 90° |